Time,TemperatureF,DewpointF,PressureIn,WindDirection,WindDirectionDegrees,WindSpeedMPH,WindSpeedGustMPH,Humidity,HourlyPrecipIn,Conditions,Clouds,dailyrainin,SolarRadiationWatts/m^2,SoftwareType,DateUTC
2013-07-22 00:22:00,62.0,62.0,29.90,WSW,255,5.0,8.0,100,0.00,,,0.00,2.000000,,2013-07-22 07:22:00,
2013-07-22 00:33:00,62.0,62.0,29.90,WSW,255,5.0,8.0,100,0.00,,,0.00,2.000000,,2013-07-22 07:33:00,
2013-07-22 00:43:00,62.0,62.0,29.90,WSW,255,5.0,8.0,100,0.00,,,0.00,2.000000,,2013-07-22 07:43:00,
2013-07-22 00:52:00,62.0,62.0,29.90,WSW,255,5.0,8.0,100,0.00,,,0.00,2.000000,,2013-07-22 07:52:00,
2013-07-22 01:32:00,62.0,62.0,29.89,West,263,4.0,7.0,100,0.00,,,-99.99,2.000000,,2013-07-22 08:32:00,
2013-07-22 01:43:00,62.0,62.0,29.89,West,263,4.0,7.0,100,0.00,,,-99.99,2.000000,,2013-07-22 08:43:00,
2013-07-22 01:52:00,62.0,62.0,29.89,West,263,4.0,7.0,100,0.00,,,-99.99,2.000000,,2013-07-22 08:52:00,
2013-07-22 02:22:00,62.0,62.0,29.90,WSW,251,3.0,7.0,100,0.00,,,0.00,3.000000,,2013-07-22 09:22:00,
2013-07-22 02:33:00,62.0,62.0,29.90,WSW,251,3.0,7.0,100,0.00,,,0.00,3.000000,,2013-07-22 09:33:00,
2013-07-22 02:42:00,62.0,62.0,29.90,WSW,251,3.0,7.0,100,0.00,,,0.00,3.000000,,2013-07-22 09:42:00,
2013-07-22 02:52:00,62.0,62.0,29.90,WSW,251,3.0,7.0,100,0.00,,,0.00,3.000000,,2013-07-22 09:52:00,
2013-07-22 03:22:00,63.0,63.0,29.88,West,276,3.0,8.0,100,0.00,,,0.00,4.000000,,2013-07-22 10:22:00,
2013-07-22 03:32:00,63.0,63.0,29.88,West,276,3.0,8.0,100,0.00,,,0.00,4.000000,,2013-07-22 10:32:00,
2013-07-22 03:43:00,63.0,63.0,29.88,West,276,3.0,8.0,100,0.00,,,0.00,4.000000,,2013-07-22 10:43:00,
2013-07-22 03:52:00,63.0,63.0,29.88,West,276,3.0,8.0,100,0.00,,,0.00,4.000000,,2013-07-22 10:52:00,
2013-07-22 04:22:00,63.0,63.0,29.88,West,266,4.0,7.0,100,0.00,,,0.00,4.000000,,2013-07-22 11:22:00,
2013-07-22 04:32:00,63.0,63.0,29.88,West,266,4.0,7.0,100,0.00,,,0.00,4.000000,,2013-07-22 11:32:00,
2013-07-22 04:43:00,63.0,63.0,29.88,West,266,4.0,7.0,100,0.00,,,0.00,4.000000,,2013-07-22 11:43:00,
2013-07-22 04:52:00,63.0,63.0,29.88,West,266,4.0,7.0,100,0.00,,,0.00,4.000000,,2013-07-22 11:52:00,
2013-07-22 05:22:00,63.0,63.0,29.88,WNW,283,5.0,6.0,100,0.00,,,0.00,5.000000,,2013-07-22 12:22:00,
2013-07-22 05:32:00,63.0,63.0,29.88,WNW,283,5.0,6.0,100,0.00,,,0.00,5.000000,,2013-07-22 12:32:00,
2013-07-22 05:43:00,63.0,63.0,29.88,WNW,283,5.0,6.0,100,0.00,,,0.00,5.000000,,2013-07-22 12:43:00,
2013-07-22 05:52:00,63.0,63.0,29.88,WNW,283,5.0,6.0,100,0.00,,,0.00,5.000000,,2013-07-22 12:52:00,
2013-07-22 06:22:00,63.0,63.0,29.90,West,275,3.0,7.0,100,0.00,,,0.00,5.000000,,2013-07-22 13:22:00,
2013-07-22 06:32:00,63.0,63.0,29.90,West,275,3.0,7.0,100,0.00,,,0.00,5.000000,,2013-07-22 13:32:00,
2013-07-22 06:43:00,63.0,63.0,29.90,West,275,3.0,7.0,100,0.00,,,0.00,5.000000,,2013-07-22 13:43:00,
2013-07-22 06:53:00,63.0,63.0,29.90,West,275,3.0,7.0,100,0.00,,,0.00,5.000000,,2013-07-22 13:53:00,
2013-07-22 07:22:00,64.0,64.0,29.91,WSW,243,1.0,6.0,100,0.00,,,0.00,31.000000,,2013-07-22 14:22:00,
2013-07-22 07:32:00,64.0,64.0,29.91,WSW,243,1.0,6.0,100,0.00,,,0.00,31.000000,,2013-07-22 14:32:00,
2013-07-22 07:42:00,64.0,64.0,29.91,WSW,243,1.0,6.0,100,0.00,,,0.00,31.000000,,2013-07-22 14:42:00,
2013-07-22 07:53:00,64.0,64.0,29.91,WSW,243,1.0,6.0,100,0.00,,,0.00,31.000000,,2013-07-22 14:53:00,
2013-07-22 08:22:00,65.0,65.0,29.94,WSW,249,3.0,4.0,100,0.00,,,0.00,102.000000,,2013-07-22 15:22:00,
2013-07-22 08:32:00,65.0,65.0,29.94,WSW,249,3.0,4.0,100,0.00,,,0.00,102.000000,,2013-07-22 15:32:00,
2013-07-22 08:42:00,65.0,65.0,29.94,WSW,249,3.0,4.0,100,0.00,,,0.00,102.000000,,2013-07-22 15:42:00,
2013-07-22 08:52:00,65.0,65.0,29.94,WSW,249,3.0,4.0,100,0.00,,,0.00,102.000000,,2013-07-22 15:52:00,
2013-07-22 09:21:00,68.0,67.0,29.94,SW,233,4.0,5.0,96,0.00,,,0.00,176.000000,,2013-07-22 16:21:00,
2013-07-22 09:32:00,68.0,67.0,29.94,SW,233,4.0,5.0,96,0.00,,,0.00,176.000000,,2013-07-22 16:32:00,
2013-07-22 09:43:00,68.0,67.0,29.94,SW,233,4.0,5.0,96,0.00,,,0.00,176.000000,,2013-07-22 16:43:00,
2013-07-22 09:52:00,68.0,67.0,29.94,SW,233,4.0,5.0,96,0.00,,,0.00,176.000000,,2013-07-22 16:52:00,
2013-07-22 10:32:00,69.0,66.0,29.95,WSW,245,5.0,6.0,89,0.00,,,0.00,240.000000,,2013-07-22 17:32:00,
2013-07-22 10:43:00,69.0,66.0,29.95,WSW,245,5.0,6.0,89,0.00,,,0.00,240.000000,,2013-07-22 17:43:00,
2013-07-22 10:52:00,69.0,66.0,29.95,WSW,245,5.0,6.0,89,0.00,,,0.00,240.000000,,2013-07-22 17:52:00,
2013-07-22 11:46:00,73.0,65.0,29.96,SW,225,5.0,8.0,75,0.00,,,0.00,558.000000,,2013-07-22 18:46:00,
2013-07-22 11:53:00,73.0,65.0,29.96,SW,225,5.0,8.0,75,0.00,,,0.00,558.000000,,2013-07-22 18:53:00,
2013-07-22 12:43:00,73.0,66.0,29.96,WSW,246,6.0,8.0,78,0.00,,,0.00,581.000000,,2013-07-22 19:43:00,
2013-07-22 12:53:00,73.0,66.0,29.96,WSW,246,6.0,8.0,78,0.00,,,0.00,581.000000,,2013-07-22 19:53:00,
2013-07-22 13:22:00,75.0,66.0,29.96,WSW,250,8.0,9.0,74,0.00,,,0.00,917.000000,,2013-07-22 20:22:00,
2013-07-22 13:32:00,75.0,66.0,29.96,WSW,250,8.0,9.0,74,0.00,,,0.00,917.000000,,2013-07-22 20:32:00,
2013-07-22 13:43:00,75.0,66.0,29.96,WSW,250,8.0,9.0,74,0.00,,,0.00,917.000000,,2013-07-22 20:43:00,
2013-07-22 13:52:00,75.0,66.0,29.96,WSW,250,8.0,9.0,74,0.00,,,0.00,917.000000,,2013-07-22 20:52:00,
2013-07-22 14:22:00,73.0,63.0,29.96,SW,230,8.0,12.0,72,0.00,,,0.00,950.000000,,2013-07-22 21:22:00,
2013-07-22 14:32:00,73.0,63.0,29.96,SW,230,8.0,12.0,72,0.00,,,0.00,950.000000,,2013-07-22 21:32:00,
2013-07-22 14:43:00,73.0,63.0,29.96,SW,230,8.0,12.0,72,0.00,,,0.00,950.000000,,2013-07-22 21:43:00,
2013-07-22 14:52:00,73.0,63.0,29.96,SW,230,8.0,12.0,72,0.00,,,0.00,950.000000,,2013-07-22 21:52:00,
2013-07-22 15:22:00,70.0,62.0,29.95,WSW,244,9.0,13.0,76,0.00,,,0.00,741.000000,,2013-07-22 22:22:00,
2013-07-22 15:32:00,70.0,62.0,29.95,WSW,244,9.0,13.0,76,0.00,,,0.00,741.000000,,2013-07-22 22:32:00,
2013-07-22 15:43:00,70.0,62.0,29.95,WSW,244,9.0,13.0,76,0.00,,,0.00,741.000000,,2013-07-22 22:43:00,
2013-07-22 15:52:00,70.0,62.0,29.95,WSW,244,9.0,13.0,76,0.00,,,0.00,741.000000,,2013-07-22 22:52:00,
2013-07-22 16:42:00,72.0,63.0,29.94,WSW,245,10.0,13.0,73,0.00,,,0.00,835.000000,,2013-07-22 23:42:00,
2013-07-22 16:52:00,72.0,63.0,29.94,WSW,245,10.0,13.0,73,0.00,,,0.00,835.000000,,2013-07-22 23:52:00,
2013-07-22 17:43:00,69.0,61.0,29.93,WSW,247,10.0,15.0,77,0.00,,,0.00,617.000000,,2013-07-23 00:43:00,
2013-07-22 17:52:00,69.0,61.0,29.93,WSW,247,10.0,15.0,77,0.00,,,0.00,617.000000,,2013-07-23 00:52:00,
2013-07-22 18:22:00,69.0,62.0,29.92,WSW,245,9.0,16.0,78,0.00,,,0.00,325.000000,,2013-07-23 01:22:00,
2013-07-22 18:32:00,69.0,62.0,29.92,WSW,245,9.0,16.0,78,0.00,,,0.00,325.000000,,2013-07-23 01:32:00,
2013-07-22 18:43:00,69.0,62.0,29.92,WSW,245,9.0,16.0,78,0.00,,,0.00,325.000000,,2013-07-23 01:43:00,
2013-07-22 18:53:00,69.0,62.0,29.92,WSW,245,9.0,16.0,78,0.00,,,0.00,325.000000,,2013-07-23 01:53:00,
2013-07-22 19:22:00,69.0,63.0,29.92,WSW,250,9.0,14.0,80,0.00,,,0.00,230.000000,,2013-07-23 02:22:00,
2013-07-22 19:33:00,69.0,63.0,29.92,WSW,250,9.0,14.0,80,0.00,,,0.00,230.000000,,2013-07-23 02:33:00,
2013-07-22 19:43:00,69.0,63.0,29.92,WSW,250,9.0,14.0,80,0.00,,,0.00,230.000000,,2013-07-23 02:43:00,
2013-07-22 19:52:00,69.0,63.0,29.92,WSW,250,9.0,14.0,80,0.00,,,0.00,230.000000,,2013-07-23 02:52:00,
2013-07-22 20:22:00,66.0,62.0,29.93,West,259,7.0,13.0,88,0.00,,,0.00,30.000000,,2013-07-23 03:22:00,
2013-07-22 20:33:00,66.0,62.0,29.93,West,259,7.0,13.0,88,0.00,,,0.00,30.000000,,2013-07-23 03:33:00,
2013-07-22 20:43:00,66.0,62.0,29.93,West,259,7.0,13.0,88,0.00,,,0.00,30.000000,,2013-07-23 03:43:00,
2013-07-22 20:52:00,66.0,62.0,29.93,West,259,7.0,13.0,88,0.00,,,0.00,30.000000,,2013-07-23 03:52:00,
2013-07-22 21:21:00,64.0,63.0,29.93,West,277,5.0,14.0,96,0.00,,,0.00,1.000000,,2013-07-23 04:21:00,
2013-07-22 21:32:00,64.0,63.0,29.93,West,277,5.0,14.0,96,0.00,,,0.00,1.000000,,2013-07-23 04:32:00,
2013-07-22 21:42:00,64.0,63.0,29.93,West,277,5.0,14.0,96,0.00,,,0.00,1.000000,,2013-07-23 04:42:00,
2013-07-22 21:53:00,64.0,63.0,29.93,West,277,5.0,14.0,96,0.00,,,0.00,1.000000,,2013-07-23 04:53:00,
2013-07-22 22:43:00,62.0,62.0,29.94,WNW,289,4.0,11.0,100,0.00,,,0.00,1.000000,,2013-07-23 05:43:00,
2013-07-22 22:52:00,62.0,62.0,29.94,WNW,289,4.0,11.0,100,0.00,,,0.00,1.000000,,2013-07-23 05:52:00,
2013-07-22 23:22:00,62.0,62.0,29.95,WNW,290,4.0,8.0,100,0.00,,,0.00,1.000000,,2013-07-23 06:22:00,
2013-07-22 23:33:00,62.0,62.0,29.95,WNW,290,4.0,8.0,100,0.00,,,0.00,1.000000,,2013-07-23 06:33:00,
2013-07-22 23:42:00,62.0,62.0,29.95,WNW,290,4.0,8.0,100,0.00,,,0.00,1.000000,,2013-07-23 06:42:00,
2013-07-22 23:52:00,62.0,62.0,29.95,WNW,290,4.0,8.0,100,0.00,,,0.00,1.000000,,2013-07-23 06:52:00,